Smith Island, WA current weather conditions

sailwx.info

Wind from 250 at 19 knots gusting 26

Air temperature 13.6° C
Dewpoint 11.0° C

Last reported at 2019-Jun-17 23:50 UTC.
Time now 2019-Jun-18 00:52 UTC

Location: N 48°19' W 122°50'.
View on Google Maps.

See reports from other nearby stations

  
Tides and Currents Weather Stations Pressure Air Temp Water Temp Dewpoint Dewpoint Depression Visibility Wind Speed Wind Dir Waves Ship Positions
date/time (UTC)wind fromknots sea level pressurealtimeterstation pressurevisibilityair tempwater tempwave heightnotes
2019-Jun-17 23:50 250 19 gusting 26 13.6
2019-Jun-17 22:50 220 18 gusting 20 12.9
2019-Jun-17 21:50 210 14 gusting 18 12.8
2019-Jun-17 20:50 230 13 gusting 19 13.0
2019-Jun-17 19:50 210 12 gusting 13 13.0
2019-Jun-17 18:50 180 9 gusting 11 12.6
2019-Jun-17 17:50 190 12 gusting 13 12.2
2019-Jun-17 16:50 200 13 gusting 14 11.9
2019-Jun-17 15:50 220 17 gusting 19 11.6
2019-Jun-17 14:50 210 19 gusting 21 11.0
2019-Jun-17 13:50 220 18 gusting 20 11.3
2019-Jun-17 12:50 230 18 gusting 20 11.4
2019-Jun-17 11:50 230 15 gusting 18 11.5
2019-Jun-17 10:50 220 13 gusting 13 11.5
2019-Jun-17 09:50 240 13 gusting 15 11.8
2019-Jun-17 08:50 250 13 gusting 15 11.8
2019-Jun-17 07:50 250 9 gusting 13 11.7
2019-Jun-17 06:50 250 9 gusting 13 11.9
2019-Jun-17 05:50 220 9 gusting 13 11.7
2019-Jun-17 04:50 210 9 gusting 12 11.7
2019-Jun-17 03:50 240 19 gusting 21 11.8
2019-Jun-17 02:50 240 18 gusting 20 12.0
2019-Jun-17 01:50 240 7 gusting 9 12.4
2019-Jun-17 00:50 230 11 gusting 13 12.1
2019-Jun-16 23:50 230 13 gusting 17 11.9
2019-Jun-16 22:50 250 19 gusting 21 12.7
2019-Jun-16 21:50 260 20 gusting 24 13.4
2019-Jun-16 20:50 250 6 gusting 11 12.8
2019-Jun-16 19:50 210 5 gusting 6 12.1
2019-Jun-16 18:50 210 7 gusting 8 11.6
2019-Jun-16 17:50 230 11 gusting 13 11.7
2019-Jun-16 16:50 240 13 gusting 14 11.9
2019-Jun-16 15:50 230 13 gusting 14 11.3
2019-Jun-16 14:50 220 13 gusting 14 11.3
2019-Jun-16 13:50 240 13 gusting 14 11.7
2019-Jun-16 12:50 240 13 gusting 15 11.7
2019-Jun-16 11:50 250 17 gusting 20 11.5
2019-Jun-16 10:50 250 18 gusting 21 11.6
2019-Jun-16 09:50 250 17 gusting 20 11.7
2019-Jun-16 08:50 250 18 gusting 20 11.5
2019-Jun-16 07:50 240 13 gusting 17 11.6
2019-Jun-16 06:50 240 14 gusting 17 11.7
2019-Jun-16 05:50 250 19 gusting 25 11.9
2019-Jun-16 04:50 250 19 gusting 22 11.6
2019-Jun-16 03:50 240 21 gusting 27 11.5
2019-Jun-16 02:50 250 19 gusting 21 12.5
2019-Jun-16 01:50 260 18 gusting 21 12.7
2019-Jun-16 00:50 260 13 gusting 17 12.7